sensor_id;sensor_type;location;lat;lon;timestamp;P1;durP1;ratioP1;P2;durP2;ratioP2
17604;SDS011;8921;50.964;6.800;2023-04-30T00:01:44;27.13;;;20.47;;
17604;SDS011;8921;50.964;6.800;2023-04-30T00:04:12;28.60;;;19.37;;
17604;SDS011;8921;50.964;6.800;2023-04-30T00:06:40;30.83;;;22.27;;
17604;SDS011;8921;50.964;6.800;2023-04-30T00:09:08;29.87;;;22.17;;
17604;SDS011;8921;50.964;6.800;2023-04-30T00:11:37;32.00;;;22.40;;
17604;SDS011;8921;50.964;6.800;2023-04-30T00:14:05;27.00;;;20.20;;
17604;SDS011;8921;50.964;6.800;2023-04-30T00:16:33;32.50;;;22.57;;
17604;SDS011;8921;50.964;6.800;2023-04-30T00:19:01;27.30;;;21.30;;
17604;SDS011;8921;50.964;6.800;2023-04-30T00:21:30;29.33;;;21.90;;
17604;SDS011;8921;50.964;6.800;2023-04-30T00:23:58;29.67;;;21.70;;
17604;SDS011;8921;50.964;6.800;2023-04-30T00:26:26;29.67;;;21.30;;
17604;SDS011;8921;50.964;6.800;2023-04-30T00:28:55;28.47;;;20.17;;
17604;SDS011;8921;50.964;6.800;2023-04-30T00:31:23;28.13;;;20.00;;
17604;SDS011;8921;50.964;6.800;2023-04-30T00:33:51;28.83;;;20.57;;
17604;SDS011;8921;50.964;6.800;2023-04-30T00:36:19;26.37;;;19.10;;
17604;SDS011;8921;50.964;6.800;2023-04-30T00:38:48;28.97;;;20.93;;
17604;SDS011;8921;50.964;6.800;2023-04-30T00:41:16;31.13;;;19.80;;
17604;SDS011;8921;50.964;6.800;2023-04-30T00:43:44;25.80;;;19.80;;
17604;SDS011;8921;50.964;6.800;2023-04-30T00:46:12;29.70;;;20.20;;
17604;SDS011;8921;50.964;6.800;2023-04-30T00:48:41;28.33;;;18.57;;
17604;SDS011;8921;50.964;6.800;2023-04-30T00:51:09;25.50;;;18.77;;
17604;SDS011;8921;50.964;6.800;2023-04-30T00:53:38;23.30;;;18.00;;
17604;SDS011;8921;50.964;6.800;2023-04-30T00:56:07;28.00;;;20.60;;
17604;SDS011;8921;50.964;6.800;2023-04-30T00:58:34;28.77;;;20.70;;
17604;SDS011;8921;50.964;6.800;2023-04-30T01:01:02;28.80;;;20.53;;
17604;SDS011;8921;50.964;6.800;2023-04-30T01:03:31;29.17;;;20.60;;
17604;SDS011;8921;50.964;6.800;2023-04-30T01:05:59;26.93;;;20.60;;
17604;SDS011;8921;50.964;6.800;2023-04-30T01:08:28;29.33;;;20.20;;
17604;SDS011;8921;50.964;6.800;2023-04-30T01:13:57;24.40;;;18.27;;
17604;SDS011;8921;50.964;6.800;2023-04-30T01:16:24;29.17;;;19.80;;
17604;SDS011;8921;50.964;6.800;2023-04-30T01:18:55;24.03;;;18.23;;
17604;SDS011;8921;50.964;6.800;2023-04-30T01:21:21;26.47;;;19.03;;
17604;SDS011;8921;50.964;6.800;2023-04-30T01:29:11;27.80;;;20.90;;
17604;SDS011;8921;50.964;6.800;2023-04-30T01:31:38;26.40;;;19.33;;
17604;SDS011;8921;50.964;6.800;2023-04-30T01:34:07;30.00;;;18.53;;
17604;SDS011;8921;50.964;6.800;2023-04-30T01:36:41;26.43;;;18.90;;
17604;SDS011;8921;50.964;6.800;2023-04-30T01:41:53;24.27;;;18.30;;
17604;SDS011;8921;50.964;6.800;2023-04-30T01:46:55;25.00;;;18.47;;
17604;SDS011;8921;50.964;6.800;2023-04-30T01:52:09;26.10;;;18.57;;
17604;SDS011;8921;50.964;6.800;2023-04-30T01:57:20;22.97;;;18.60;;
17604;SDS011;8921;50.964;6.800;2023-04-30T01:59:45;23.67;;;16.60;;
17604;SDS011;8921;50.964;6.800;2023-04-30T02:02:13;25.10;;;18.80;;
17604;SDS011;8921;50.964;6.800;2023-04-30T02:04:42;24.20;;;17.43;;
17604;SDS011;8921;50.964;6.800;2023-04-30T02:07:10;22.30;;;16.23;;
17604;SDS011;8921;50.964;6.800;2023-04-30T02:09:38;26.10;;;19.57;;
17604;SDS011;8921;50.964;6.800;2023-04-30T02:12:06;24.97;;;17.63;;
17604;SDS011;8921;50.964;6.800;2023-04-30T02:14:35;27.43;;;19.00;;
17604;SDS011;8921;50.964;6.800;2023-04-30T02:17:03;22.03;;;16.80;;
17604;SDS011;8921;50.964;6.800;2023-04-30T02:19:31;24.87;;;17.20;;
17604;SDS011;8921;50.964;6.800;2023-04-30T02:21:59;24.60;;;16.97;;
17604;SDS011;8921;50.964;6.800;2023-04-30T02:24:28;27.40;;;17.33;;
17604;SDS011;8921;50.964;6.800;2023-04-30T02:26:56;23.47;;;15.97;;
17604;SDS011;8921;50.964;6.800;2023-04-30T02:29:24;25.67;;;18.70;;
17604;SDS011;8921;50.964;6.800;2023-04-30T02:31:52;27.63;;;18.93;;
17604;SDS011;8921;50.964;6.800;2023-04-30T02:34:21;26.03;;;18.10;;
17604;SDS011;8921;50.964;6.800;2023-04-30T02:36:49;24.30;;;18.73;;
17604;SDS011;8921;50.964;6.800;2023-04-30T02:39:17;27.80;;;18.40;;
17604;SDS011;8921;50.964;6.800;2023-04-30T02:41:46;25.80;;;18.83;;
17604;SDS011;8921;50.964;6.800;2023-04-30T02:44:14;24.10;;;17.23;;
17604;SDS011;8921;50.964;6.800;2023-04-30T02:46:42;27.07;;;17.57;;
17604;SDS011;8921;50.964;6.800;2023-04-30T02:49:10;25.97;;;18.83;;
17604;SDS011;8921;50.964;6.800;2023-04-30T02:51:39;25.70;;;17.47;;
17604;SDS011;8921;50.964;6.800;2023-04-30T02:54:07;24.80;;;17.67;;
17604;SDS011;8921;50.964;6.800;2023-04-30T02:56:35;25.83;;;18.80;;
17604;SDS011;8921;50.964;6.800;2023-04-30T02:59:06;25.80;;;19.40;;
17604;SDS011;8921;50.964;6.800;2023-04-30T03:01:34;28.87;;;18.97;;
17604;SDS011;8921;50.964;6.800;2023-04-30T03:04:03;27.37;;;18.00;;
17604;SDS011;8921;50.964;6.800;2023-04-30T03:06:31;28.37;;;18.60;;
17604;SDS011;8921;50.964;6.800;2023-04-30T03:09:00;26.50;;;18.23;;
17604;SDS011;8921;50.964;6.800;2023-04-30T03:11:28;22.80;;;18.43;;
17604;SDS011;8921;50.964;6.800;2023-04-30T03:13:56;27.10;;;17.83;;
17604;SDS011;8921;50.964;6.800;2023-04-30T03:16:24;23.27;;;18.07;;
17604;SDS011;8921;50.964;6.800;2023-04-30T03:18:53;26.50;;;17.63;;
17604;SDS011;8921;50.964;6.800;2023-04-30T03:21:21;24.90;;;17.23;;
17604;SDS011;8921;50.964;6.800;2023-04-30T03:23:49;22.33;;;16.97;;
17604;SDS011;8921;50.964;6.800;2023-04-30T03:26:17;24.93;;;17.77;;
17604;SDS011;8921;50.964;6.800;2023-04-30T03:28:46;28.50;;;17.23;;
17604;SDS011;8921;50.964;6.800;2023-04-30T03:31:14;26.47;;;18.83;;
17604;SDS011;8921;50.964;6.800;2023-04-30T03:33:42;30.17;;;18.93;;
17604;SDS011;8921;50.964;6.800;2023-04-30T03:36:11;25.63;;;20.20;;
17604;SDS011;8921;50.964;6.800;2023-04-30T03:38:39;29.07;;;17.87;;
17604;SDS011;8921;50.964;6.800;2023-04-30T03:41:07;27.77;;;17.80;;
17604;SDS011;8921;50.964;6.800;2023-04-30T03:43:36;27.77;;;19.23;;
17604;SDS011;8921;50.964;6.800;2023-04-30T03:46:04;26.83;;;18.50;;
17604;SDS011;8921;50.964;6.800;2023-04-30T03:48:32;27.53;;;18.37;;
17604;SDS011;8921;50.964;6.800;2023-04-30T03:51:00;25.60;;;17.63;;
17604;SDS011;8921;50.964;6.800;2023-04-30T03:53:28;28.60;;;18.40;;
17604;SDS011;8921;50.964;6.800;2023-04-30T03:55:57;24.47;;;17.90;;
17604;SDS011;8921;50.964;6.800;2023-04-30T03:58:25;28.90;;;18.20;;
17604;SDS011;8921;50.964;6.800;2023-04-30T04:00:53;24.70;;;16.93;;
17604;SDS011;8921;50.964;6.800;2023-04-30T04:03:22;28.53;;;18.67;;
17604;SDS011;8921;50.964;6.800;2023-04-30T04:05:50;26.47;;;18.10;;
17604;SDS011;8921;50.964;6.800;2023-04-30T04:08:18;27.53;;;18.80;;
17604;SDS011;8921;50.964;6.800;2023-04-30T04:10:46;27.87;;;19.43;;
17604;SDS011;8921;50.964;6.800;2023-04-30T04:13:15;26.10;;;18.03;;
17604;SDS011;8921;50.964;6.800;2023-04-30T04:15:43;25.30;;;17.50;;
17604;SDS011;8921;50.964;6.800;2023-04-30T04:18:11;24.90;;;17.80;;
17604;SDS011;8921;50.964;6.800;2023-04-30T04:20:39;30.23;;;19.00;;
17604;SDS011;8921;50.964;6.800;2023-04-30T04:23:08;26.20;;;18.27;;
17604;SDS011;8921;50.964;6.800;2023-04-30T04:25:36;28.07;;;20.20;;
17604;SDS011;8921;50.964;6.800;2023-04-30T04:28:04;26.13;;;18.40;;
17604;SDS011;8921;50.964;6.800;2023-04-30T04:30:33;27.73;;;18.97;;
17604;SDS011;8921;50.964;6.800;2023-04-30T04:33:01;25.80;;;18.20;;
17604;SDS011;8921;50.964;6.800;2023-04-30T04:35:29;26.73;;;19.33;;
17604;SDS011;8921;50.964;6.800;2023-04-30T04:37:58;26.87;;;18.17;;
17604;SDS011;8921;50.964;6.800;2023-04-30T04:40:26;24.83;;;17.30;;
17604;SDS011;8921;50.964;6.800;2023-04-30T04:42:54;25.27;;;17.23;;
17604;SDS011;8921;50.964;6.800;2023-04-30T04:45:22;26.47;;;18.20;;
17604;SDS011;8921;50.964;6.800;2023-04-30T04:47:51;25.73;;;17.80;;
17604;SDS011;8921;50.964;6.800;2023-04-30T04:50:19;26.70;;;18.53;;
17604;SDS011;8921;50.964;6.800;2023-04-30T04:52:47;26.93;;;18.50;;
17604;SDS011;8921;50.964;6.800;2023-04-30T04:55:15;25.10;;;17.20;;
17604;SDS011;8921;50.964;6.800;2023-04-30T04:57:44;23.03;;;15.77;;
17604;SDS011;8921;50.964;6.800;2023-04-30T05:00:12;23.60;;;16.70;;
17604;SDS011;8921;50.964;6.800;2023-04-30T05:02:40;23.10;;;16.40;;
17604;SDS011;8921;50.964;6.800;2023-04-30T05:05:09;21.90;;;15.73;;
17604;SDS011;8921;50.964;6.800;2023-04-30T05:07:37;23.90;;;17.33;;
17604;SDS011;8921;50.964;6.800;2023-04-30T05:10:06;24.37;;;15.17;;
17604;SDS011;8921;50.964;6.800;2023-04-30T05:12:34;21.37;;;15.07;;
17604;SDS011;8921;50.964;6.800;2023-04-30T05:15:02;20.83;;;14.90;;
17604;SDS011;8921;50.964;6.800;2023-04-30T05:17:31;19.83;;;15.27;;
17604;SDS011;8921;50.964;6.800;2023-04-30T05:19:59;22.93;;;15.20;;
17604;SDS011;8921;50.964;6.800;2023-04-30T05:22:27;20.97;;;13.60;;
17604;SDS011;8921;50.964;6.800;2023-04-30T05:24:55;18.73;;;13.37;;
17604;SDS011;8921;50.964;6.800;2023-04-30T05:27:24;19.73;;;13.50;;
17604;SDS011;8921;50.964;6.800;2023-04-30T05:29:52;21.63;;;16.20;;
17604;SDS011;8921;50.964;6.800;2023-04-30T05:32:23;19.00;;;13.13;;
17604;SDS011;8921;50.964;6.800;2023-04-30T05:34:51;20.97;;;15.63;;
17604;SDS011;8921;50.964;6.800;2023-04-30T05:37:20;22.17;;;13.50;;
17604;SDS011;8921;50.964;6.800;2023-04-30T05:39:48;22.47;;;15.30;;
17604;SDS011;8921;50.964;6.800;2023-04-30T05:42:16;23.53;;;16.37;;
17604;SDS011;8921;50.964;6.800;2023-04-30T05:44:44;20.53;;;14.80;;
17604;SDS011;8921;50.964;6.800;2023-04-30T05:47:13;20.43;;;14.90;;
17604;SDS011;8921;50.964;6.800;2023-04-30T05:49:41;21.90;;;14.43;;
17604;SDS011;8921;50.964;6.800;2023-04-30T05:52:09;22.43;;;14.63;;
17604;SDS011;8921;50.964;6.800;2023-04-30T05:54:37;21.30;;;14.13;;
17604;SDS011;8921;50.964;6.800;2023-04-30T05:57:06;24.63;;;14.80;;
17604;SDS011;8921;50.964;6.800;2023-04-30T05:59:34;21.57;;;14.23;;
17604;SDS011;8921;50.964;6.800;2023-04-30T06:02:02;18.37;;;12.27;;
17604;SDS011;8921;50.964;6.800;2023-04-30T06:04:31;19.27;;;13.43;;
17604;SDS011;8921;50.964;6.800;2023-04-30T06:06:59;18.97;;;13.67;;
17604;SDS011;8921;50.964;6.800;2023-04-30T06:09:27;22.00;;;14.20;;
17604;SDS011;8921;50.964;6.800;2023-04-30T06:11:55;18.93;;;12.73;;
17604;SDS011;8921;50.964;6.800;2023-04-30T06:14:24;17.67;;;12.90;;
17604;SDS011;8921;50.964;6.800;2023-04-30T06:16:52;23.10;;;14.00;;
17604;SDS011;8921;50.964;6.800;2023-04-30T06:19:20;20.23;;;13.50;;
17604;SDS011;8921;50.964;6.800;2023-04-30T06:21:48;22.60;;;13.40;;
17604;SDS011;8921;50.964;6.800;2023-04-30T06:24:17;19.73;;;14.30;;
17604;SDS011;8921;50.964;6.800;2023-04-30T06:26:45;19.60;;;14.30;;
17604;SDS011;8921;50.964;6.800;2023-04-30T06:29:13;21.30;;;13.77;;
17604;SDS011;8921;50.964;6.800;2023-04-30T06:31:42;21.80;;;15.97;;
17604;SDS011;8921;50.964;6.800;2023-04-30T06:34:10;23.60;;;15.53;;
17604;SDS011;8921;50.964;6.800;2023-04-30T06:36:38;21.30;;;15.10;;
17604;SDS011;8921;50.964;6.800;2023-04-30T06:39:06;26.20;;;15.73;;
17604;SDS011;8921;50.964;6.800;2023-04-30T06:41:35;21.80;;;15.00;;
17604;SDS011;8921;50.964;6.800;2023-04-30T06:44:03;21.70;;;14.60;;
17604;SDS011;8921;50.964;6.800;2023-04-30T06:46:31;22.43;;;14.90;;
17604;SDS011;8921;50.964;6.800;2023-04-30T06:49:00;25.70;;;15.40;;
17604;SDS011;8921;50.964;6.800;2023-04-30T06:51:28;25.63;;;15.30;;
17604;SDS011;8921;50.964;6.800;2023-04-30T06:53:56;20.23;;;14.57;;
17604;SDS011;8921;50.964;6.800;2023-04-30T06:56:24;23.40;;;15.10;;
17604;SDS011;8921;50.964;6.800;2023-04-30T06:58:53;24.60;;;15.03;;
17604;SDS011;8921;50.964;6.800;2023-04-30T07:01:21;25.00;;;16.40;;
17604;SDS011;8921;50.964;6.800;2023-04-30T07:03:49;27.77;;;17.30;;
17604;SDS011;8921;50.964;6.800;2023-04-30T07:06:17;21.80;;;14.30;;
17604;SDS011;8921;50.964;6.800;2023-04-30T07:08:46;27.70;;;14.37;;
17604;SDS011;8921;50.964;6.800;2023-04-30T07:11:14;19.90;;;13.20;;
17604;SDS011;8921;50.964;6.800;2023-04-30T07:13:42;21.50;;;13.80;;
17604;SDS011;8921;50.964;6.800;2023-04-30T07:16:11;19.60;;;13.30;;
17604;SDS011;8921;50.964;6.800;2023-04-30T07:18:39;23.13;;;14.00;;
17604;SDS011;8921;50.964;6.800;2023-04-30T07:21:07;21.27;;;14.10;;
17604;SDS011;8921;50.964;6.800;2023-04-30T07:23:36;22.80;;;13.87;;
17604;SDS011;8921;50.964;6.800;2023-04-30T07:26:04;19.27;;;12.87;;
17604;SDS011;8921;50.964;6.800;2023-04-30T07:28:32;19.20;;;12.93;;
17604;SDS011;8921;50.964;6.800;2023-04-30T07:31:00;20.77;;;13.90;;
17604;SDS011;8921;50.964;6.800;2023-04-30T07:33:29;21.60;;;14.23;;
17604;SDS011;8921;50.964;6.800;2023-04-30T07:35:57;24.70;;;15.97;;
17604;SDS011;8921;50.964;6.800;2023-04-30T07:38:25;23.43;;;15.07;;
17604;SDS011;8921;50.964;6.800;2023-04-30T07:40:54;26.63;;;16.20;;
17604;SDS011;8921;50.964;6.800;2023-04-30T07:43:22;22.00;;;15.30;;
17604;SDS011;8921;50.964;6.800;2023-04-30T07:45:50;22.57;;;14.87;;
17604;SDS011;8921;50.964;6.800;2023-04-30T07:48:18;20.97;;;13.73;;
17604;SDS011;8921;50.964;6.800;2023-04-30T07:50:47;23.17;;;14.90;;
17604;SDS011;8921;50.964;6.800;2023-04-30T07:53:15;19.30;;;13.80;;
17604;SDS011;8921;50.964;6.800;2023-04-30T07:55:43;18.97;;;13.73;;
17604;SDS011;8921;50.964;6.800;2023-04-30T07:58:12;23.83;;;14.50;;
17604;SDS011;8921;50.964;6.800;2023-04-30T08:00:40;18.27;;;12.87;;
17604;SDS011;8921;50.964;6.800;2023-04-30T08:03:08;23.80;;;14.00;;
17604;SDS011;8921;50.964;6.800;2023-04-30T08:05:36;19.20;;;13.93;;
17604;SDS011;8921;50.964;6.800;2023-04-30T08:08:05;22.60;;;13.87;;
17604;SDS011;8921;50.964;6.800;2023-04-30T08:10:33;21.23;;;14.00;;
17604;SDS011;8921;50.964;6.800;2023-04-30T08:13:02;23.03;;;14.50;;
17604;SDS011;8921;50.964;6.800;2023-04-30T08:15:29;23.70;;;13.00;;
17604;SDS011;8921;50.964;6.800;2023-04-30T08:17:58;19.63;;;13.20;;
17604;SDS011;8921;50.964;6.800;2023-04-30T08:20:26;21.40;;;14.43;;
17604;SDS011;8921;50.964;6.800;2023-04-30T08:22:54;16.80;;;13.03;;
17604;SDS011;8921;50.964;6.800;2023-04-30T08:25:23;23.17;;;13.30;;
17604;SDS011;8921;50.964;6.800;2023-04-30T08:27:51;20.33;;;13.83;;
17604;SDS011;8921;50.964;6.800;2023-04-30T08:30:19;20.93;;;14.13;;
17604;SDS011;8921;50.964;6.800;2023-04-30T08:32:48;18.53;;;13.30;;
17604;SDS011;8921;50.964;6.800;2023-04-30T08:35:16;22.23;;;12.90;;
17604;SDS011;8921;50.964;6.800;2023-04-30T08:37:44;20.00;;;13.70;;
17604;SDS011;8921;50.964;6.800;2023-04-30T08:40:12;19.17;;;13.73;;
17604;SDS011;8921;50.964;6.800;2023-04-30T08:42:43;23.00;;;14.70;;
17604;SDS011;8921;50.964;6.800;2023-04-30T08:45:10;21.07;;;13.50;;
17604;SDS011;8921;50.964;6.800;2023-04-30T08:47:37;21.17;;;13.97;;
17604;SDS011;8921;50.964;6.800;2023-04-30T08:50:05;20.73;;;13.93;;
17604;SDS011;8921;50.964;6.800;2023-04-30T08:52:34;25.07;;;17.40;;
17604;SDS011;8921;50.964;6.800;2023-04-30T08:55:02;20.80;;;14.33;;
17604;SDS011;8921;50.964;6.800;2023-04-30T08:57:31;18.80;;;12.37;;
17604;SDS011;8921;50.964;6.800;2023-04-30T08:59:59;20.27;;;11.20;;
17604;SDS011;8921;50.964;6.800;2023-04-30T09:02:27;21.80;;;12.03;;
17604;SDS011;8921;50.964;6.800;2023-04-30T09:04:55;19.07;;;12.23;;
17604;SDS011;8921;50.964;6.800;2023-04-30T09:07:24;15.83;;;12.50;;
17604;SDS011;8921;50.964;6.800;2023-04-30T09:09:52;24.30;;;15.73;;
17604;SDS011;8921;50.964;6.800;2023-04-30T09:12:20;19.57;;;11.57;;
17604;SDS011;8921;50.964;6.800;2023-04-30T09:15:01;17.80;;;12.47;;
17604;SDS011;8921;50.964;6.800;2023-04-30T09:17:29;18.47;;;11.87;;
17604;SDS011;8921;50.964;6.800;2023-04-30T09:20:10;19.10;;;13.10;;
17604;SDS011;8921;50.964;6.800;2023-04-30T09:22:38;16.17;;;10.70;;
17604;SDS011;8921;50.964;6.800;2023-04-30T09:25:06;18.67;;;11.77;;
17604;SDS011;8921;50.964;6.800;2023-04-30T09:27:35;14.50;;;9.83;;
17604;SDS011;8921;50.964;6.800;2023-04-30T09:30:03;19.23;;;9.40;;
17604;SDS011;8921;50.964;6.800;2023-04-30T09:32:31;15.53;;;10.90;;
17604;SDS011;8921;50.964;6.800;2023-04-30T09:35:00;18.17;;;10.87;;
17604;SDS011;8921;50.964;6.800;2023-04-30T09:37:36;17.00;;;12.97;;
17604;SDS011;8921;50.964;6.800;2023-04-30T09:40:02;12.30;;;8.20;;
17604;SDS011;8921;50.964;6.800;2023-04-30T09:42:31;13.57;;;9.40;;
17604;SDS011;8921;50.964;6.800;2023-04-30T09:44:59;10.67;;;7.03;;
17604;SDS011;8921;50.964;6.800;2023-04-30T09:47:28;11.97;;;8.33;;
17604;SDS011;8921;50.964;6.800;2023-04-30T09:49:55;10.57;;;6.17;;
17604;SDS011;8921;50.964;6.800;2023-04-30T09:52:24;14.10;;;7.90;;
17604;SDS011;8921;50.964;6.800;2023-04-30T09:54:52;11.40;;;6.30;;
17604;SDS011;8921;50.964;6.800;2023-04-30T09:57:22;9.87;;;5.57;;
17604;SDS011;8921;50.964;6.800;2023-04-30T09:59:48;8.33;;;5.30;;
17604;SDS011;8921;50.964;6.800;2023-04-30T10:02:17;9.80;;;6.20;;
17604;SDS011;8921;50.964;6.800;2023-04-30T10:04:47;8.70;;;5.70;;
17604;SDS011;8921;50.964;6.800;2023-04-30T10:07:19;10.57;;;5.90;;
17604;SDS011;8921;50.964;6.800;2023-04-30T10:09:52;16.37;;;9.57;;
17604;SDS011;8921;50.964;6.800;2023-04-30T10:12:23;8.57;;;5.40;;
17604;SDS011;8921;50.964;6.800;2023-04-30T10:14:56;8.27;;;4.90;;
17604;SDS011;8921;50.964;6.800;2023-04-30T10:17:25;8.57;;;4.73;;
17604;SDS011;8921;50.964;6.800;2023-04-30T10:19:51;9.43;;;4.13;;
17604;SDS011;8921;50.964;6.800;2023-04-30T10:22:20;5.90;;;3.70;;
17604;SDS011;8921;50.964;6.800;2023-04-30T10:24:48;7.10;;;4.53;;
17604;SDS011;8921;50.964;6.800;2023-04-30T10:27:16;9.37;;;5.83;;
17604;SDS011;8921;50.964;6.800;2023-04-30T10:29:44;7.30;;;5.00;;
17604;SDS011;8921;50.964;6.800;2023-04-30T10:32:13;6.67;;;3.70;;
17604;SDS011;8921;50.964;6.800;2023-04-30T10:35:24;11.73;;;5.33;;
17604;SDS011;8921;50.964;6.800;2023-04-30T10:37:24;8.77;;;5.37;;
17604;SDS011;8921;50.964;6.800;2023-04-30T10:39:53;6.63;;;4.20;;
17604;SDS011;8921;50.964;6.800;2023-04-30T10:42:21;12.13;;;4.03;;
17604;SDS011;8921;50.964;6.800;2023-04-30T10:44:49;10.47;;;6.50;;
17604;SDS011;8921;50.964;6.800;2023-04-30T10:47:17;6.20;;;3.87;;
17604;SDS011;8921;50.964;6.800;2023-04-30T10:49:46;6.33;;;3.40;;
17604;SDS011;8921;50.964;6.800;2023-04-30T10:52:15;8.23;;;4.40;;
17604;SDS011;8921;50.964;6.800;2023-04-30T10:54:44;7.93;;;4.03;;
17604;SDS011;8921;50.964;6.800;2023-04-30T10:57:11;8.13;;;4.60;;
17604;SDS011;8921;50.964;6.800;2023-04-30T10:59:42;5.47;;;3.10;;
17604;SDS011;8921;50.964;6.800;2023-04-30T11:02:10;8.20;;;5.73;;
17604;SDS011;8921;50.964;6.800;2023-04-30T11:07:34;5.20;;;2.83;;
17604;SDS011;8921;50.964;6.800;2023-04-30T11:10:03;6.90;;;3.63;;
17604;SDS011;8921;50.964;6.800;2023-04-30T11:12:31;6.43;;;3.73;;
17604;SDS011;8921;50.964;6.800;2023-04-30T11:15:00;7.43;;;4.37;;
17604;SDS011;8921;50.964;6.800;2023-04-30T11:17:27;5.57;;;2.93;;
17604;SDS011;8921;50.964;6.800;2023-04-30T11:19:57;6.20;;;2.93;;
17604;SDS011;8921;50.964;6.800;2023-04-30T11:22:25;6.60;;;4.07;;
17604;SDS011;8921;50.964;6.800;2023-04-30T11:27:30;3.80;;;1.87;;
17604;SDS011;8921;50.964;6.800;2023-04-30T11:29:57;4.00;;;1.60;;
17604;SDS011;8921;50.964;6.800;2023-04-30T11:32:30;7.27;;;2.87;;
17604;SDS011;8921;50.964;6.800;2023-04-30T11:34:54;9.33;;;6.40;;
17604;SDS011;8921;50.964;6.800;2023-04-30T11:37:38;4.20;;;1.53;;
17604;SDS011;8921;50.964;6.800;2023-04-30T11:40:06;4.60;;;2.70;;
17604;SDS011;8921;50.964;6.800;2023-04-30T11:42:34;5.23;;;1.57;;
17604;SDS011;8921;50.964;6.800;2023-04-30T11:45:03;3.70;;;1.70;;
17604;SDS011;8921;50.964;6.800;2023-04-30T11:47:46;3.40;;;1.40;;
17604;SDS011;8921;50.964;6.800;2023-04-30T11:50:14;4.43;;;1.77;;
17604;SDS011;8921;50.964;6.800;2023-04-30T11:52:47;3.50;;;1.40;;
17604;SDS011;8921;50.964;6.800;2023-04-30T11:55:13;7.23;;;2.00;;
17604;SDS011;8921;50.964;6.800;2023-04-30T11:57:42;13.17;;;8.50;;
17604;SDS011;8921;50.964;6.800;2023-04-30T12:00:10;7.97;;;3.70;;
17604;SDS011;8921;50.964;6.800;2023-04-30T12:02:38;4.53;;;2.50;;
17604;SDS011;8921;50.964;6.800;2023-04-30T12:05:11;5.27;;;2.10;;
17604;SDS011;8921;50.964;6.800;2023-04-30T12:07:44;4.63;;;2.33;;
17604;SDS011;8921;50.964;6.800;2023-04-30T12:10:11;3.80;;;1.57;;
17604;SDS011;8921;50.964;6.800;2023-04-30T12:12:41;5.37;;;2.03;;
17604;SDS011;8921;50.964;6.800;2023-04-30T12:15:11;4.93;;;1.40;;
17604;SDS011;8921;50.964;6.800;2023-04-30T12:17:42;3.50;;;1.60;;
17604;SDS011;8921;50.964;6.800;2023-04-30T12:20:11;4.33;;;2.20;;
17604;SDS011;8921;50.964;6.800;2023-04-30T12:22:41;4.40;;;2.00;;
17604;SDS011;8921;50.964;6.800;2023-04-30T12:25:13;4.23;;;1.77;;
17604;SDS011;8921;50.964;6.800;2023-04-30T12:27:44;4.83;;;2.20;;
17604;SDS011;8921;50.964;6.800;2023-04-30T12:30:12;4.90;;;2.70;;
17604;SDS011;8921;50.964;6.800;2023-04-30T12:32:43;3.97;;;1.80;;
17604;SDS011;8921;50.964;6.800;2023-04-30T12:35:12;5.17;;;2.17;;
17604;SDS011;8921;50.964;6.800;2023-04-30T12:37:40;5.40;;;2.70;;
17604;SDS011;8921;50.964;6.800;2023-04-30T12:40:08;6.20;;;4.17;;
17604;SDS011;8921;50.964;6.800;2023-04-30T12:42:36;8.50;;;5.40;;
17604;SDS011;8921;50.964;6.800;2023-04-30T12:45:05;5.27;;;1.97;;
17604;SDS011;8921;50.964;6.800;2023-04-30T12:47:36;6.83;;;4.00;;
17604;SDS011;8921;50.964;6.800;2023-04-30T12:50:02;3.80;;;1.60;;
17604;SDS011;8921;50.964;6.800;2023-04-30T12:52:31;3.30;;;1.40;;
17604;SDS011;8921;50.964;6.800;2023-04-30T12:55:12;3.70;;;1.27;;
17604;SDS011;8921;50.964;6.800;2023-04-30T12:57:26;3.40;;;1.30;;
17604;SDS011;8921;50.964;6.800;2023-04-30T12:59:55;3.50;;;1.30;;
17604;SDS011;8921;50.964;6.800;2023-04-30T13:02:23;3.10;;;1.20;;
17604;SDS011;8921;50.964;6.800;2023-04-30T13:04:51;3.30;;;1.27;;
17604;SDS011;8921;50.964;6.800;2023-04-30T13:07:19;3.20;;;1.20;;
17604;SDS011;8921;50.964;6.800;2023-04-30T13:09:48;3.53;;;1.30;;
17604;SDS011;8921;50.964;6.800;2023-04-30T13:12:16;3.97;;;1.30;;
17604;SDS011;8921;50.964;6.800;2023-04-30T13:14:44;4.00;;;2.47;;
17604;SDS011;8921;50.964;6.800;2023-04-30T13:17:12;4.10;;;2.13;;
17604;SDS011;8921;50.964;6.800;2023-04-30T13:19:41;4.10;;;1.20;;
17604;SDS011;8921;50.964;6.800;2023-04-30T13:22:09;3.30;;;1.23;;
17604;SDS011;8921;50.964;6.800;2023-04-30T13:24:37;3.00;;;1.10;;
17604;SDS011;8921;50.964;6.800;2023-04-30T13:27:06;3.27;;;1.20;;
17604;SDS011;8921;50.964;6.800;2023-04-30T13:29:34;3.00;;;1.10;;
17604;SDS011;8921;50.964;6.800;2023-04-30T13:32:02;3.80;;;1.30;;
17604;SDS011;8921;50.964;6.800;2023-04-30T13:34:30;4.47;;;2.07;;
17604;SDS011;8921;50.964;6.800;2023-04-30T13:36:59;3.10;;;1.10;;
17604;SDS011;8921;50.964;6.800;2023-04-30T13:39:27;3.20;;;1.20;;
17604;SDS011;8921;50.964;6.800;2023-04-30T13:41:55;3.40;;;1.40;;
17604;SDS011;8921;50.964;6.800;2023-04-30T13:44:24;3.10;;;1.10;;
17604;SDS011;8921;50.964;6.800;2023-04-30T13:46:52;5.10;;;1.57;;
17604;SDS011;8921;50.964;6.800;2023-04-30T13:49:20;4.00;;;1.33;;
17604;SDS011;8921;50.964;6.800;2023-04-30T13:51:49;4.03;;;1.47;;
17604;SDS011;8921;50.964;6.800;2023-04-30T13:54:17;3.60;;;1.20;;
17604;SDS011;8921;50.964;6.800;2023-04-30T13:56:45;15.80;;;7.60;;
17604;SDS011;8921;50.964;6.800;2023-04-30T13:59:16;8.40;;;5.50;;
17604;SDS011;8921;50.964;6.800;2023-04-30T14:01:42;3.70;;;1.30;;
17604;SDS011;8921;50.964;6.800;2023-04-30T14:04:10;4.40;;;1.90;;
17604;SDS011;8921;50.964;6.800;2023-04-30T14:06:38;3.63;;;1.50;;
17604;SDS011;8921;50.964;6.800;2023-04-30T14:09:06;6.17;;;2.20;;
17604;SDS011;8921;50.964;6.800;2023-04-30T14:11:35;6.20;;;2.23;;
17604;SDS011;8921;50.964;6.800;2023-04-30T14:14:03;4.93;;;1.10;;
17604;SDS011;8921;50.964;6.800;2023-04-30T14:16:31;3.80;;;1.30;;
17604;SDS011;8921;50.964;6.800;2023-04-30T14:18:59;3.53;;;1.47;;
17604;SDS011;8921;50.964;6.800;2023-04-30T14:21:28;3.70;;;1.10;;
17604;SDS011;8921;50.964;6.800;2023-04-30T14:23:56;5.03;;;2.40;;
17604;SDS011;8921;50.964;6.800;2023-04-30T14:26:24;4.10;;;1.30;;
17604;SDS011;8921;50.964;6.800;2023-04-30T14:28:53;3.33;;;1.23;;
17604;SDS011;8921;50.964;6.800;2023-04-30T14:31:21;3.90;;;1.13;;
17604;SDS011;8921;50.964;6.800;2023-04-30T14:33:49;3.30;;;1.23;;
17604;SDS011;8921;50.964;6.800;2023-04-30T14:36:17;3.93;;;1.50;;
17604;SDS011;8921;50.964;6.800;2023-04-30T14:38:46;3.67;;;1.40;;
17604;SDS011;8921;50.964;6.800;2023-04-30T14:41:14;3.20;;;1.20;;
17604;SDS011;8921;50.964;6.800;2023-04-30T14:43:42;4.30;;;1.30;;
17604;SDS011;8921;50.964;6.800;2023-04-30T14:46:11;4.90;;;1.40;;
17604;SDS011;8921;50.964;6.800;2023-04-30T14:48:39;3.70;;;1.40;;
17604;SDS011;8921;50.964;6.800;2023-04-30T14:51:07;3.90;;;1.70;;
17604;SDS011;8921;50.964;6.800;2023-04-30T14:53:35;3.27;;;1.33;;
17604;SDS011;8921;50.964;6.800;2023-04-30T14:56:04;4.60;;;1.63;;
17604;SDS011;8921;50.964;6.800;2023-04-30T14:58:32;4.47;;;1.20;;
17604;SDS011;8921;50.964;6.800;2023-04-30T15:01:00;4.60;;;1.67;;
17604;SDS011;8921;50.964;6.800;2023-04-30T15:03:29;3.47;;;1.37;;
17604;SDS011;8921;50.964;6.800;2023-04-30T15:05:57;3.50;;;1.30;;
17604;SDS011;8921;50.964;6.800;2023-04-30T15:08:25;3.10;;;1.20;;
17604;SDS011;8921;50.964;6.800;2023-04-30T15:10:53;3.20;;;1.20;;
17604;SDS011;8921;50.964;6.800;2023-04-30T15:13:22;3.40;;;1.20;;
17604;SDS011;8921;50.964;6.800;2023-04-30T15:15:50;3.30;;;1.30;;